sensor_id;sensor_type;location;lat;lon;timestamp;pressure;altitude;pressure_sealevel;temperature;humidity
53689;BME280;39583;54.682;30.662;2023-07-20T07:55:43;98716.25;;;18.31;81.83
53689;BME280;39583;54.682;30.662;2023-07-20T07:58:11;98713.41;;;18.17;83.06
53689;BME280;39583;54.682;30.662;2023-07-20T08:00:38;98706.31;;;18.16;84.45
53689;BME280;39583;54.682;30.662;2023-07-20T08:03:08;98705.94;;;18.27;84.72
53689;BME280;39583;54.682;30.662;2023-07-20T08:05:36;98714.00;;;18.38;84.16
53689;BME280;39583;54.682;30.662;2023-07-20T08:08:04;98706.19;;;18.55;81.36
53689;BME280;39583;54.682;30.662;2023-07-20T08:10:31;98703.78;;;18.48;80.39
53689;BME280;39583;54.682;30.662;2023-07-20T08:12:59;98691.44;;;18.56;80.73
53689;BME280;39583;54.682;30.662;2023-07-20T08:15:26;98698.59;;;18.76;81.30
53689;BME280;39583;54.682;30.662;2023-07-20T08:17:53;98682.63;;;18.88;78.44
53689;BME280;39583;54.682;30.662;2023-07-20T08:20:21;98692.38;;;19.13;78.95
53689;BME280;39583;54.682;30.662;2023-07-20T08:22:56;98694.56;;;19.49;83.80
53689;BME280;39583;54.682;30.662;2023-07-20T08:25:25;98697.03;;;19.69;77.02
53689;BME280;39583;54.682;30.662;2023-07-20T08:27:52;98697.50;;;19.57;75.20
53689;BME280;39583;54.682;30.662;2023-07-20T08:30:21;98694.34;;;19.83;77.17
53689;BME280;39583;54.682;30.662;2023-07-20T08:32:50;98696.63;;;20.08;77.62
53689;BME280;39583;54.682;30.662;2023-07-20T08:35:18;98690.53;;;19.97;76.21
53689;BME280;39583;54.682;30.662;2023-07-20T08:37:49;98696.16;;;19.87;75.84
53689;BME280;39583;54.682;30.662;2023-07-20T08:40:17;98700.63;;;19.83;76.51
53689;BME280;39583;54.682;30.662;2023-07-20T08:42:44;98700.50;;;19.88;77.06
53689;BME280;39583;54.682;30.662;2023-07-20T08:45:12;98675.97;;;20.02;75.69
53689;BME280;39583;54.682;30.662;2023-07-20T08:47:42;98684.09;;;20.07;73.80
53689;BME280;39583;54.682;30.662;2023-07-20T08:50:11;98695.53;;;20.23;72.64
53689;BME280;39583;54.682;30.662;2023-07-20T08:52:39;98687.53;;;20.13;70.14
53689;BME280;39583;54.682;30.662;2023-07-20T08:55:07;98701.34;;;20.02;69.18
53689;BME280;39583;54.682;30.662;2023-07-20T08:57:36;98699.03;;;19.96;68.77
53689;BME280;39583;54.682;30.662;2023-07-20T09:00:04;98699.03;;;19.96;66.67
53689;BME280;39583;54.682;30.662;2023-07-20T09:02:35;98699.66;;;20.07;64.13
53689;BME280;39583;54.682;30.662;2023-07-20T09:05:03;98697.06;;;20.29;62.52
53689;BME280;39583;54.682;30.662;2023-07-20T09:07:31;98664.25;;;20.15;61.00
53689;BME280;39583;54.682;30.662;2023-07-20T09:09:59;98693.91;;;20.08;59.66
53689;BME280;39583;54.682;30.662;2023-07-20T09:12:26;98697.19;;;19.91;60.07
53689;BME280;39583;54.682;30.662;2023-07-20T09:14:57;98698.56;;;20.08;59.55
53689;BME280;39583;54.682;30.662;2023-07-20T09:17:25;98700.88;;;20.14;58.19
53689;BME280;39583;54.682;30.662;2023-07-20T09:19:53;98700.28;;;20.17;58.73
53689;BME280;39583;54.682;30.662;2023-07-20T09:22:20;98711.00;;;20.46;58.05
53689;BME280;39583;54.682;30.662;2023-07-20T09:24:48;98706.13;;;20.71;57.29
53689;BME280;39583;54.682;30.662;2023-07-20T09:27:17;98699.00;;;21.11;56.49
53689;BME280;39583;54.682;30.662;2023-07-20T09:29:48;98687.22;;;21.24;55.56
53689;BME280;39583;54.682;30.662;2023-07-20T09:32:20;98693.47;;;21.38;55.73
53689;BME280;39583;54.682;30.662;2023-07-20T09:34:52;98700.31;;;21.27;55.06
53689;BME280;39583;54.682;30.662;2023-07-20T09:37:23;98693.00;;;21.23;54.99
53689;BME280;39583;54.682;30.662;2023-07-20T09:39:53;98698.47;;;21.09;54.16
53689;BME280;39583;54.682;30.662;2023-07-20T09:42:24;98700.31;;;21.13;54.70
53689;BME280;39583;54.682;30.662;2023-07-20T09:44:56;98707.41;;;21.28;54.53
53689;BME280;39583;54.682;30.662;2023-07-20T09:47:24;98671.66;;;20.97;53.60
53689;BME280;39583;54.682;30.662;2023-07-20T09:49:59;98701.03;;;21.05;53.26
53689;BME280;39583;54.682;30.662;2023-07-20T09:52:32;98699.41;;;21.04;53.06
53689;BME280;39583;54.682;30.662;2023-07-20T09:55:03;98677.22;;;20.92;52.88
53689;BME280;39583;54.682;30.662;2023-07-20T09:57:34;98703.66;;;21.10;52.80
53689;BME280;39583;54.682;30.662;2023-07-20T10:00:07;98701.31;;;21.17;52.33
53689;BME280;39583;54.682;30.662;2023-07-20T10:02:45;98703.34;;;21.12;52.46
53689;BME280;39583;54.682;30.662;2023-07-20T10:05:13;98696.31;;;21.19;52.37
53689;BME280;39583;54.682;30.662;2023-07-20T10:07:47;98685.50;;;21.28;52.04
53689;BME280;39583;54.682;30.662;2023-07-20T10:10:16;98690.97;;;21.28;52.17
53689;BME280;39583;54.682;30.662;2023-07-20T10:12:47;98691.41;;;21.44;51.96
53689;BME280;39583;54.682;30.662;2023-07-20T10:15:23;98685.78;;;21.63;51.60
53689;BME280;39583;54.682;30.662;2023-07-20T10:20:22;98674.47;;;21.87;50.49
53689;BME280;39583;54.682;30.662;2023-07-20T10:22:53;98672.81;;;21.77;51.25
53689;BME280;39583;54.682;30.662;2023-07-20T10:25:23;98665.84;;;21.71;50.63
53689;BME280;39583;54.682;30.662;2023-07-20T10:27:51;98655.00;;;21.43;50.61
53689;BME280;39583;54.682;30.662;2023-07-20T10:30:19;98660.16;;;21.45;50.09
53689;BME280;39583;54.682;30.662;2023-07-20T10:32:47;98658.72;;;21.25;50.34
53689;BME280;39583;54.682;30.662;2023-07-20T10:35:16;98667.47;;;21.13;50.67
53689;BME280;39583;54.682;30.662;2023-07-20T10:37:55;98661.81;;;20.96;50.55
53689;BME280;39583;54.682;30.662;2023-07-20T10:43:01;98663.69;;;20.73;51.96
53689;BME280;39583;54.682;30.662;2023-07-20T10:45:48;98668.22;;;20.78;51.51
53689;BME280;39583;54.682;30.662;2023-07-20T10:48:24;98670.84;;;20.83;51.86
53689;BME280;39583;54.682;30.662;2023-07-20T10:51:14;98676.31;;;20.97;51.53
53689;BME280;39583;54.682;30.662;2023-07-20T10:53:48;98677.41;;;20.96;51.30
53689;BME280;39583;54.682;30.662;2023-07-20T10:56:21;98671.69;;;21.19;51.55
53689;BME280;39583;54.682;30.662;2023-07-20T10:58:49;98666.34;;;21.51;50.90
53689;BME280;39583;54.682;30.662;2023-07-20T11:01:17;98667.19;;;21.60;49.70
53689;BME280;39583;54.682;30.662;2023-07-20T11:03:49;98670.25;;;21.58;49.67
53689;BME280;39583;54.682;30.662;2023-07-20T11:11:39;98661.47;;;21.70;50.38
53689;BME280;39583;54.682;30.662;2023-07-20T11:14:09;98655.16;;;22.14;49.98
53689;BME280;39583;54.682;30.662;2023-07-20T11:16:44;98648.22;;;22.56;49.13
53689;BME280;39583;54.682;30.662;2023-07-20T11:19:20;98655.63;;;22.47;48.45
53689;BME280;39583;54.682;30.662;2023-07-20T11:21:52;98653.84;;;22.51;49.15
53689;BME280;39583;54.682;30.662;2023-07-20T11:24:29;98648.19;;;22.48;48.85
53689;BME280;39583;54.682;30.662;2023-07-20T11:26:57;98662.50;;;22.36;49.26
53689;BME280;39583;54.682;30.662;2023-07-20T11:29:24;98658.75;;;22.23;49.39
53689;BME280;39583;54.682;30.662;2023-07-20T11:32:01;98661.09;;;22.07;49.33
53689;BME280;39583;54.682;30.662;2023-07-20T11:34:32;98661.31;;;21.97;49.96
53689;BME280;39583;54.682;30.662;2023-07-20T11:37:00;98656.91;;;22.10;49.71
53689;BME280;39583;54.682;30.662;2023-07-20T11:39:31;98653.31;;;22.32;49.52
53689;BME280;39583;54.682;30.662;2023-07-20T11:41:58;98655.06;;;22.28;49.89
53689;BME280;39583;54.682;30.662;2023-07-20T11:44:27;98639.78;;;22.44;49.59
53689;BME280;39583;54.682;30.662;2023-07-20T11:47:10;98651.09;;;22.51;49.06
53689;BME280;39583;54.682;30.662;2023-07-20T11:49:42;98645.94;;;22.41;49.17
53689;BME280;39583;54.682;30.662;2023-07-20T11:52:11;98650.56;;;22.32;48.87
53689;BME280;39583;54.682;30.662;2023-07-20T11:54:39;98649.97;;;22.13;49.10
53689;BME280;39583;54.682;30.662;2023-07-20T11:57:19;98643.69;;;22.12;49.46
53689;BME280;39583;54.682;30.662;2023-07-20T11:59:57;98637.28;;;21.94;49.34
53689;BME280;39583;54.682;30.662;2023-07-20T12:02:27;98643.34;;;21.83;49.88
53689;BME280;39583;54.682;30.662;2023-07-20T12:04:55;98631.00;;;21.63;49.79
53689;BME280;39583;54.682;30.662;2023-07-20T12:07:23;98638.00;;;21.77;50.21
53689;BME280;39583;54.682;30.662;2023-07-20T12:10:06;98631.09;;;22.11;48.34
53689;BME280;39583;54.682;30.662;2023-07-20T12:12:38;98634.84;;;22.15;48.62
53689;BME280;39583;54.682;30.662;2023-07-20T12:15:25;98633.41;;;21.95;48.70
53689;BME280;39583;54.682;30.662;2023-07-20T12:18:01;98634.06;;;21.92;48.52
53689;BME280;39583;54.682;30.662;2023-07-20T12:20:36;98637.56;;;21.84;48.65
53689;BME280;39583;54.682;30.662;2023-07-20T12:23:12;98637.56;;;21.84;48.40
53689;BME280;39583;54.682;30.662;2023-07-20T12:28:16;98630.63;;;22.09;47.41
53689;BME280;39583;54.682;30.662;2023-07-20T12:30:45;98633.41;;;22.18;47.38
53689;BME280;39583;54.682;30.662;2023-07-20T12:33:13;98629.72;;;22.00;46.86
53689;BME280;39583;54.682;30.662;2023-07-20T12:35:44;98610.06;;;21.67;47.74
53689;BME280;39583;54.682;30.662;2023-07-20T12:38:11;98635.84;;;21.97;48.48
53689;BME280;39583;54.682;30.662;2023-07-20T12:40:39;98623.03;;;22.06;48.28
53689;BME280;39583;54.682;30.662;2023-07-20T12:43:07;98606.44;;;22.11;47.66
53689;BME280;39583;54.682;30.662;2023-07-20T12:45:35;98583.88;;;22.14;47.61
53689;BME280;39583;54.682;30.662;2023-07-20T12:48:03;98606.53;;;22.28;47.40
53689;BME280;39583;54.682;30.662;2023-07-20T12:50:30;98612.22;;;22.41;46.70
53689;BME280;39583;54.682;30.662;2023-07-20T12:52:58;98609.66;;;22.53;46.38
53689;BME280;39583;54.682;30.662;2023-07-20T12:55:25;98613.25;;;22.79;46.30
53689;BME280;39583;54.682;30.662;2023-07-20T12:57:53;98608.78;;;23.01;45.65
53689;BME280;39583;54.682;30.662;2023-07-20T13:00:20;98599.09;;;23.12;46.29
53689;BME280;39583;54.682;30.662;2023-07-20T13:02:51;98608.28;;;23.16;45.82
53689;BME280;39583;54.682;30.662;2023-07-20T13:05:35;98606.34;;;22.99;46.35
53689;BME280;39583;54.682;30.662;2023-07-20T13:08:06;98604.22;;;22.79;45.97
53689;BME280;39583;54.682;30.662;2023-07-20T13:10:36;98601.59;;;22.56;46.40
53689;BME280;39583;54.682;30.662;2023-07-20T13:13:04;98591.75;;;22.55;46.84
53689;BME280;39583;54.682;30.662;2023-07-20T13:15:35;98599.97;;;22.64;47.26
53689;BME280;39583;54.682;30.662;2023-07-20T13:18:07;98551.81;;;22.23;47.54
53689;BME280;39583;54.682;30.662;2023-07-20T13:20:34;98598.97;;;22.51;48.07
53689;BME280;39583;54.682;30.662;2023-07-20T13:23:02;98595.44;;;22.51;48.66
53689;BME280;39583;54.682;30.662;2023-07-20T13:25:29;98591.59;;;22.60;48.82
53689;BME280;39583;54.682;30.662;2023-07-20T13:27:56;98593.72;;;22.81;48.42
53689;BME280;39583;54.682;30.662;2023-07-20T13:30:24;98596.59;;;22.76;48.02
53689;BME280;39583;54.682;30.662;2023-07-20T13:32:51;98578.84;;;22.56;48.12
53689;BME280;39583;54.682;30.662;2023-07-20T13:35:20;98596.75;;;22.62;48.20
53689;BME280;39583;54.682;30.662;2023-07-20T13:37:48;98600.78;;;22.56;48.30
53689;BME280;39583;54.682;30.662;2023-07-20T13:40:16;98604.31;;;22.48;48.22
53689;BME280;39583;54.682;30.662;2023-07-20T13:42:45;98600.31;;;22.54;48.00
53689;BME280;39583;54.682;30.662;2023-07-20T13:45:13;98604.03;;;22.66;48.44
53689;BME280;39583;54.682;30.662;2023-07-20T13:47:41;98584.25;;;22.95;47.54
53689;BME280;39583;54.682;30.662;2023-07-20T13:50:12;98598.13;;;23.08;46.95
53689;BME280;39583;54.682;30.662;2023-07-20T13:52:52;98603.13;;;23.14;47.17
53689;BME280;39583;54.682;30.662;2023-07-20T13:55:40;98591.34;;;23.22;47.67
53689;BME280;39583;54.682;30.662;2023-07-20T13:58:10;98587.59;;;23.44;46.97
53689;BME280;39583;54.682;30.662;2023-07-20T14:00:40;98592.13;;;23.49;46.76
53689;BME280;39583;54.682;30.662;2023-07-20T14:03:08;98583.72;;;23.37;46.68
53689;BME280;39583;54.682;30.662;2023-07-20T14:05:39;98583.28;;;23.09;47.40
53689;BME280;39583;54.682;30.662;2023-07-20T14:08:09;98582.72;;;22.72;47.12
53689;BME280;39583;54.682;30.662;2023-07-20T14:10:37;98573.38;;;22.82;47.62
53689;BME280;39583;54.682;30.662;2023-07-20T14:13:08;98576.78;;;22.87;46.63
53689;BME280;39583;54.682;30.662;2023-07-20T14:15:35;98583.75;;;22.85;46.65
53689;BME280;39583;54.682;30.662;2023-07-20T14:18:03;98570.50;;;22.87;46.37
53689;BME280;39583;54.682;30.662;2023-07-20T14:20:30;98580.81;;;22.81;46.56
53689;BME280;39583;54.682;30.662;2023-07-20T14:22:58;98576.59;;;22.66;46.58
53689;BME280;39583;54.682;30.662;2023-07-20T14:25:25;98567.84;;;22.64;46.30
53689;BME280;39583;54.682;30.662;2023-07-20T14:27:55;98580.44;;;22.57;46.50
53689;BME280;39583;54.682;30.662;2023-07-20T14:30:23;98574.00;;;22.53;46.70
53689;BME280;39583;54.682;30.662;2023-07-20T14:32:51;98578.16;;;22.50;46.26
53689;BME280;39583;54.682;30.662;2023-07-20T14:35:18;98569.44;;;22.48;46.87
53689;BME280;39583;54.682;30.662;2023-07-20T14:37:47;98573.66;;;22.54;46.37
53689;BME280;39583;54.682;30.662;2023-07-20T14:40:15;98575.75;;;22.49;46.75
53689;BME280;39583;54.682;30.662;2023-07-20T14:42:42;98573.00;;;22.49;46.39
53689;BME280;39583;54.682;30.662;2023-07-20T14:45:09;98576.22;;;22.42;46.70
53689;BME280;39583;54.682;30.662;2023-07-20T14:47:37;98564.75;;;22.31;46.63
53689;BME280;39583;54.682;30.662;2023-07-20T14:50:06;98567.81;;;22.30;47.00
53689;BME280;39583;54.682;30.662;2023-07-20T14:52:34;98560.84;;;22.24;46.95
53689;BME280;39583;54.682;30.662;2023-07-20T14:55:01;98563.69;;;22.10;47.27
53689;BME280;39583;54.682;30.662;2023-07-20T14:57:30;98558.47;;;22.00;47.49
53689;BME280;39583;54.682;30.662;2023-07-20T14:59:57;98561.50;;;21.90;47.35
53689;BME280;39583;54.682;30.662;2023-07-20T15:02:24;98559.25;;;21.92;47.72
53689;BME280;39583;54.682;30.662;2023-07-20T15:04:52;98565.38;;;21.97;47.53
53689;BME280;39583;54.682;30.662;2023-07-20T15:07:21;98565.31;;;22.11;47.59
53689;BME280;39583;54.682;30.662;2023-07-20T15:09:49;98563.72;;;22.19;47.11
53689;BME280;39583;54.682;30.662;2023-07-20T15:12:17;98552.97;;;22.00;47.28
53689;BME280;39583;54.682;30.662;2023-07-20T15:15:06;98562.66;;;21.97;47.70
53689;BME280;39583;54.682;30.662;2023-07-20T15:17:35;98564.50;;;21.79;47.89
53689;BME280;39583;54.682;30.662;2023-07-20T15:20:04;98560.97;;;21.79;48.24
53689;BME280;39583;54.682;30.662;2023-07-20T15:22:33;98549.69;;;21.81;48.21
53689;BME280;39583;54.682;30.662;2023-07-20T15:25:05;98554.53;;;21.84;48.40
53689;BME280;39583;54.682;30.662;2023-07-20T15:27:34;98549.75;;;21.98;48.67
53689;BME280;39583;54.682;30.662;2023-07-20T15:30:01;98556.34;;;22.28;47.72
53689;BME280;39583;54.682;30.662;2023-07-20T15:32:31;98565.56;;;22.49;47.70
53689;BME280;39583;54.682;30.662;2023-07-20T15:35:19;98565.78;;;22.70;46.91
53689;BME280;39583;54.682;30.662;2023-07-20T15:37:46;98565.47;;;22.80;46.13
53689;BME280;39583;54.682;30.662;2023-07-20T15:40:14;98567.75;;;22.95;45.82
53689;BME280;39583;54.682;30.662;2023-07-20T15:42:45;98567.91;;;23.16;45.43
53689;BME280;39583;54.682;30.662;2023-07-20T15:45:21;98558.97;;;23.63;44.32
53689;BME280;39583;54.682;30.662;2023-07-20T15:47:49;98549.59;;;24.10;43.61
53689;BME280;39583;54.682;30.662;2023-07-20T15:50:17;98558.97;;;24.09;42.74
53689;BME280;39583;54.682;30.662;2023-07-20T15:52:49;98562.56;;;24.39;42.55
53689;BME280;39583;54.682;30.662;2023-07-20T15:55:18;98558.00;;;25.48;40.38
53689;BME280;39583;54.682;30.662;2023-07-20T15:57:46;98559.31;;;26.57;38.68
53689;BME280;39583;54.682;30.662;2023-07-20T16:00:13;98566.13;;;26.87;37.80
53689;BME280;39583;54.682;30.662;2023-07-20T16:02:41;98576.16;;;25.94;38.77
53689;BME280;39583;54.682;30.662;2023-07-20T16:05:08;98574.00;;;25.01;40.49
53689;BME280;39583;54.682;30.662;2023-07-20T16:07:40;98568.72;;;25.28;40.26
53689;BME280;39583;54.682;30.662;2023-07-20T16:10:11;98572.63;;;25.27;40.40
53689;BME280;39583;54.682;30.662;2023-07-20T16:12:39;98572.66;;;25.07;40.91
53689;BME280;39583;54.682;30.662;2023-07-20T16:15:09;98574.88;;;25.46;40.60
53689;BME280;39583;54.682;30.662;2023-07-20T16:17:36;98578.38;;;26.62;38.53
53689;BME280;39583;54.682;30.662;2023-07-20T16:20:04;98579.91;;;26.99;37.56
53689;BME280;39583;54.682;30.662;2023-07-20T16:22:32;98579.78;;;26.43;38.63
53689;BME280;39583;54.682;30.662;2023-07-20T16:25:01;98580.09;;;27.19;36.81
53689;BME280;39583;54.682;30.662;2023-07-20T16:27:29;98585.22;;;27.88;35.74
53689;BME280;39583;54.682;30.662;2023-07-20T16:29:58;62827.63;;;-144.82;100.00
53689;BME280;39583;54.682;30.662;2023-07-20T16:32:29;98579.16;;;28.46;35.11
53689;BME280;39583;54.682;30.662;2023-07-20T16:34:56;98579.59;;;28.01;35.95
53689;BME280;39583;54.682;30.662;2023-07-20T16:37:38;98581.31;;;27.06;36.89
53689;BME280;39583;54.682;30.662;2023-07-20T16:40:09;98567.31;;;26.74;37.49
53689;BME280;39583;54.682;30.662;2023-07-20T16:42:42;98578.84;;;27.16;37.35
53689;BME280;39583;54.682;30.662;2023-07-20T16:45:13;98571.25;;;27.41;36.36
53689;BME280;39583;54.682;30.662;2023-07-20T16:47:40;98569.66;;;26.48;37.80
53689;BME280;39583;54.682;30.662;2023-07-20T16:50:08;98574.28;;;25.41;39.32
53689;BME280;39583;54.682;30.662;2023-07-20T16:52:36;98567.13;;;24.27;41.50
53689;BME280;39583;54.682;30.662;2023-07-20T16:55:06;98568.19;;;23.41;43.33
53689;BME280;39583;54.682;30.662;2023-07-20T16:57:35;98570.97;;;22.80;44.51
53689;BME280;39583;54.682;30.662;2023-07-20T17:00:04;98567.66;;;22.35;45.50
53689;BME280;39583;54.682;30.662;2023-07-20T17:02:38;98559.75;;;21.94;46.52
53689;BME280;39583;54.682;30.662;2023-07-20T17:05:07;98560.88;;;21.62;47.22
53689;BME280;39583;54.682;30.662;2023-07-20T17:07:37;98554.31;;;21.40;47.69
53689;BME280;39583;54.682;30.662;2023-07-20T17:10:08;98556.22;;;21.17;47.93
53689;BME280;39583;54.682;30.662;2023-07-20T17:12:37;98523.84;;;20.75;48.82
53689;BME280;39583;54.682;30.662;2023-07-20T17:15:08;98551.22;;;20.75;49.04
53689;BME280;39583;54.682;30.662;2023-07-20T17:17:35;98557.09;;;20.68;49.42
53689;BME280;39583;54.682;30.662;2023-07-20T17:20:03;98547.31;;;21.34;50.64
53689;BME280;39583;54.682;30.662;2023-07-20T17:22:37;98543.47;;;21.97;50.04
53689;BME280;39583;54.682;30.662;2023-07-20T17:25:05;98548.09;;;22.19;49.97
53689;BME280;39583;54.682;30.662;2023-07-20T17:27:35;98550.25;;;22.00;51.35
53689;BME280;39583;54.682;30.662;2023-07-20T17:30:07;98551.41;;;21.37;53.11
53689;BME280;39583;54.682;30.662;2023-07-20T17:32:35;98551.56;;;20.82;54.58
53689;BME280;39583;54.682;30.662;2023-07-20T17:35:04;98553.78;;;20.44;55.76
53689;BME280;39583;54.682;30.662;2023-07-20T17:37:32;98554.09;;;20.28;56.75
53689;BME280;39583;54.682;30.662;2023-07-20T17:40:10;98552.03;;;20.75;56.28
53689;BME280;39583;54.682;30.662;2023-07-20T17:42:40;98557.06;;;20.46;56.84
53689;BME280;39583;54.682;30.662;2023-07-20T17:45:11;98551.88;;;19.76;58.69
53689;BME280;39583;54.682;30.662;2023-07-20T17:47:38;98642.00;;;19.76;59.74
53689;BME280;39583;54.682;30.662;2023-07-20T17:50:07;98549.25;;;19.05;61.01
53689;BME280;39583;54.682;30.662;2023-07-20T17:52:38;98544.66;;;19.20;60.69
53689;BME280;39583;54.682;30.662;2023-07-20T17:55:07;98548.25;;;19.66;59.82
53689;BME280;39583;54.682;30.662;2023-07-20T17:57:36;98561.50;;;19.87;58.97
53689;BME280;39583;54.682;30.662;2023-07-20T18:00:04;98559.84;;;19.39;59.75
53689;BME280;39583;54.682;30.662;2023-07-20T18:02:39;98563.50;;;18.65;61.79
53689;BME280;39583;54.682;30.662;2023-07-20T18:05:07;98565.56;;;18.06;63.62
53689;BME280;39583;54.682;30.662;2023-07-20T18:07:35;98562.81;;;17.58;65.16
53689;BME280;39583;54.682;30.662;2023-07-20T18:10:03;98550.69;;;17.12;66.66
53689;BME280;39583;54.682;30.662;2023-07-20T18:12:31;98566.69;;;16.84;67.85
53689;BME280;39583;54.682;30.662;2023-07-20T18:14:58;98569.28;;;16.55;68.91
53689;BME280;39583;54.682;30.662;2023-07-20T18:17:27;98568.03;;;16.27;70.17
53689;BME280;39583;54.682;30.662;2023-07-20T18:19:57;98558.16;;;15.92;70.81
53689;BME280;39583;54.682;30.662;2023-07-20T18:22:27;98575.28;;;15.77;71.48
53689;BME280;39583;54.682;30.662;2023-07-20T18:25:07;98577.22;;;15.51;72.32
53689;BME280;39583;54.682;30.662;2023-07-20T18:27:37;98582.38;;;15.32;73.04
53689;BME280;39583;54.682;30.662;2023-07-20T18:30:13;98576.66;;;15.19;73.85
53689;BME280;39583;54.682;30.662;2023-07-20T18:32:46;98586.69;;;15.03;74.09
53689;BME280;39583;54.682;30.662;2023-07-20T18:35:17;98583.69;;;14.84;74.85
53689;BME280;39583;54.682;30.662;2023-07-20T18:40:34;98587.69;;;14.51;75.75
53689;BME280;39583;54.682;30.662;2023-07-20T18:43:07;98592.75;;;14.37;76.40
53689;BME280;39583;54.682;30.662;2023-07-20T18:45:36;98596.78;;;14.25;76.62
53689;BME280;39583;54.682;30.662;2023-07-20T18:48:03;98596.47;;;14.16;77.35
53689;BME280;39583;54.682;30.662;2023-07-20T18:50:30;98599.94;;;14.06;77.84
53689;BME280;39583;54.682;30.662;2023-07-20T18:52:59;98591.22;;;13.94;78.37
53689;BME280;39583;54.682;30.662;2023-07-20T18:55:27;98597.66;;;13.83;78.65
53689;BME280;39583;54.682;30.662;2023-07-20T18:57:54;98597.03;;;13.71;79.09
53689;BME280;39583;54.682;30.662;2023-07-20T19:00:22;98599.94;;;13.59;79.64
53689;BME280;39583;54.682;30.662;2023-07-20T19:02:49;98599.34;;;13.52;80.13
53689;BME280;39583;54.682;30.662;2023-07-20T19:05:17;98602.28;;;13.45;80.58
53689;BME280;39583;54.682;30.662;2023-07-20T19:07:45;98589.72;;;13.29;80.87
53689;BME280;39583;54.682;30.662;2023-07-20T19:10:13;98606.97;;;13.23;81.21
53689;BME280;39583;54.682;30.662;2023-07-20T19:12:41;98606.53;;;13.09;81.70
53689;BME280;39583;54.682;30.662;2023-07-20T19:15:09;98612.09;;;12.97;82.35
53689;BME280;39583;54.682;30.662;2023-07-20T19:17:40;98605.78;;;12.87;82.43
53689;BME280;39583;54.682;30.662;2023-07-20T19:20:11;98580.47;;;12.66;82.76
53689;BME280;39583;54.682;30.662;2023-07-20T19:22:43;98587.50;;;12.67;83.03
